Time;durP1;ratioP1;P1;durP2;ratioP2;P2;SDS_P1;SDS_P2;PMS_P1;PMS_P2;Temp;Humidity;BMP_temperature;BMP_pressure;BME280_temperature;BME280_humidity;BME280_pressure;Samples;Min_cycle;Max_cycle;Signal;HPM_P1;HPM_P2
2021/01/25 04:15:06;;;;;;;6.45;3.05;;;-6.70;99.90;;;;;;4953622;29;20523;-70
2021/01/25 04:17:31;;;;;;;8.18;3.42;;;-6.60;99.90;;;;;;4954264;28;20050;-70
2021/01/25 04:19:57;;;;;;;8.02;3.33;;;-6.60;99.90;;;;;;4954190;29;20395;-70
2021/01/25 04:22:23;;;;;;;7.72;3.35;;;-6.60;99.90;;;;;;4954535;28;20065;-70
2021/01/25 04:24:49;;;;;;;4.80;2.67;;;-6.60;99.90;;;;;;4954222;29;20106;-70
2021/01/25 04:27:15;;;;;;;5.05;2.90;;;-6.70;99.90;;;;;;4954459;29;20135;-70
2021/01/25 04:29:41;;;;;;;8.70;3.75;;;-6.70;99.90;;;;;;4954291;29;20048;-69
2021/01/25 04:32:08;;;;;;;6.45;3.35;;;-6.70;99.90;;;;;;4954154;29;20027;-70
2021/01/25 04:34:34;;;;;;;8.65;3.10;;;-6.70;99.90;;;;;;4954038;29;20034;-70
2021/01/25 04:36:59;;;;;;;8.75;3.47;;;-6.70;99.90;;;;;;4954164;29;20031;-70
2021/01/25 04:39:25;;;;;;;7.40;3.35;;;-6.70;99.90;;;;;;4954336;29;20031;-70
2021/01/25 04:41:51;;;;;;;6.50;3.28;;;-6.70;99.90;;;;;;4953688;29;20046;-70
2021/01/25 04:44:18;;;;;;;7.07;2.88;;;-6.70;99.90;;;;;;4953929;29;20494;-70
2021/01/25 04:46:44;;;;;;;8.45;3.30;;;-6.70;99.90;;;;;;4953973;29;20031;-70
2021/01/25 04:49:13;;;;;;;8.43;3.40;;;-6.80;99.90;;;;;;4954051;29;20043;-70
2021/01/25 04:51:40;;;;;;;11.38;3.35;;;-6.80;99.90;;;;;;4953952;28;20027;-71
2021/01/25 04:54:07;;;;;;;6.32;3.60;;;-6.70;99.90;;;;;;4955361;28;20403;-70
2021/01/25 04:56:36;;;;;;;6.88;3.40;;;-6.70;99.90;;;;;;4957788;29;20023;-71
2021/01/25 04:59:05;;;;;;;11.13;3.85;;;-6.70;99.90;;;;;;4957788;29;20479;-70
2021/01/25 05:01:30;;;;;;;5.57;3.35;;;-6.70;99.90;;;;;;4957864;28;20078;-70
2021/01/25 05:03:56;;;;;;;9.57;3.60;;;-6.70;99.90;;;;;;4957813;28;20476;-70
2021/01/25 05:06:22;;;;;;;10.57;4.15;;;-6.70;99.90;;;;;;4957894;28;20526;-70
2021/01/25 05:08:48;;;;;;;5.00;3.53;;;-6.60;99.90;;;;;;4957375;29;20035;-71
2021/01/25 05:11:15;;;;;;;9.45;4.93;;;-6.70;99.90;;;;;;4957748;29;20031;-71
2021/01/25 05:13:41;;;;;;;9.70;3.83;;;-6.60;99.90;;;;;;4957671;28;20086;-71
2021/01/25 05:16:17;;;;;;;11.82;4.03;;;-6.60;99.90;;;;;;4957250;29;20491;-70
2021/01/25 05:18:43;;;;;;;8.23;3.60;;;-6.60;99.90;;;;;;4957625;28;20435;-69
2021/01/25 05:21:09;;;;;;;9.25;3.70;;;-6.60;99.90;;;;;;4957591;29;20107;-69
2021/01/25 05:23:39;;;;;;;10.32;4.60;;;-6.60;99.90;;;;;;4957391;29;20523;-69
2021/01/25 05:26:09;;;;;;;8.97;3.63;;;-6.60;99.90;;;;;;4957265;29;20551;-70
2021/01/25 05:28:42;;;;;;;12.50;4.50;;;-6.60;99.90;;;;;;4957161;29;20027;-70
2021/01/25 05:31:21;;;;;;;10.80;3.85;;;-6.50;99.90;;;;;;4957205;29;20043;-71
2021/01/25 05:33:48;;;;;;;6.90;3.83;;;-6.50;99.90;;;;;;4957011;29;20062;-72
2021/01/25 05:36:29;;;;;;;17.27;4.60;;;-6.40;99.90;;;;;;4957154;29;20027;-72
2021/01/25 05:38:55;;;;;;;11.98;3.97;;;-6.40;99.90;;;;;;4957278;28;20027;-72
2021/01/25 05:41:22;;;;;;;10.52;3.80;;;-6.40;99.90;;;;;;4957258;29;20023;-73
2021/01/25 05:43:50;;;;;;;9.50;4.28;;;-6.10;99.90;;;;;;4957128;29;20095;-69
2021/01/25 05:46:18;;;;;;;9.63;4.47;;;-5.80;99.90;;;;;;4956764;29;20379;-71
2021/01/25 05:48:56;;;;;;;14.85;4.35;;;-5.80;99.90;;;;;;4955710;29;20082;-70
2021/01/25 05:51:22;;;;;;;10.25;4.20;;;-6.00;99.90;;;;;;4956799;29;20035;-71
2021/01/25 05:53:48;;;;;;;7.30;4.03;;;-6.10;99.90;;;;;;4955525;29;20452;-71
2021/01/25 05:56:16;;;;;;;10.00;4.28;;;-6.10;99.90;;;;;;4956504;29;20098;-71
2021/01/25 05:58:42;;;;;;;8.80;3.92;;;-6.20;99.90;;;;;;4956128;29;20027;-71
2021/01/25 06:01:09;;;;;;;10.13;3.63;;;-6.20;99.90;;;;;;4955695;29;20031;-74
2021/01/25 06:03:37;;;;;;;8.40;4.07;;;-6.20;99.90;;;;;;4956385;29;20038;-74
2021/01/25 06:06:12;;;;;;;7.63;3.35;;;-6.20;99.90;;;;;;4955598;28;20033;-74
2021/01/25 06:08:52;;;;;;;9.10;3.88;;;-6.30;99.90;;;;;;4956312;29;20046;-74
2021/01/25 06:11:22;;;;;;;;;;;-6.40;99.90;;;;;;4956332;29;20615;-74
2021/01/25 06:14:11;;;;;;;8.07;3.75;;;-6.40;99.90;;;;;;4955712;28;19910;-74
2021/01/25 06:16:36;;;;;;;9.35;4.00;;;-6.40;99.90;;;;;;4955624;29;20432;-74
2021/01/25 06:19:06;;;;;;;9.45;3.90;;;-6.40;99.90;;;;;;4955812;29;20026;-75
2021/01/25 06:21:34;;;;;;;12.32;5.68;;;-6.50;99.90;;;;;;4956440;29;20047;-71
2021/01/25 06:24:02;;;;;;;7.88;3.72;;;-6.50;99.90;;;;;;4955942;29;20035;-73
2021/01/25 06:26:30;;;;;;;9.45;3.58;;;-6.50;99.90;;;;;;4955891;28;20089;-72
2021/01/25 06:29:09;;;;;;;8.23;3.53;;;-6.50;99.90;;;;;;4955703;29;20023;-73
2021/01/25 06:31:41;;;;;;;7.88;3.38;;;-6.20;99.90;;;;;;4956187;29;20031;-73
2021/01/25 06:34:10;;;;;;;8.30;3.30;;;-6.10;99.90;;;;;;4956185;29;20115;-76
2021/01/25 06:36:38;;;;;;;8.85;3.67;;;-6.20;99.90;;;;;;4954958;29;20035;-76
2021/01/25 06:39:06;;;;;;;12.05;3.42;;;-6.30;99.90;;;;;;4955571;29;20038;-76
2021/01/25 06:41:36;;;;;;;7.10;3.15;;;-6.30;99.90;;;;;;4955824;28;20054;-76
2021/01/25 06:44:02;;;;;;;;;;;-6.40;99.90;;;;;;4956125;29;20110;-76
2021/01/25 06:46:32;;;;;;;9.50;2.85;;;-6.50;99.90;;;;;;4955725;28;19911;-76
2021/01/25 06:48:59;;;;;;;9.45;3.65;;;-6.50;99.90;;;;;;4955606;29;20408;-76
2021/01/25 06:51:25;;;;;;;8.98;3.42;;;-6.50;99.90;;;;;;4955756;29;20369;-76
2021/01/25 06:53:53;;;;;;;6.45;2.88;;;-6.50;99.90;;;;;;4955487;29;20480;-76
2021/01/25 06:56:19;;;;;;;9.98;3.42;;;-6.50;99.90;;;;;;4955678;29;20475;-75
2021/01/25 06:58:49;;;;;;;10.82;3.35;;;-6.50;99.90;;;;;;4955821;29;20023;-75
2021/01/25 07:01:20;;;;;;;7.97;2.97;;;-6.50;99.90;;;;;;4955269;29;20058;-75
2021/01/25 07:03:57;;;;;;;8.50;3.80;;;-6.50;99.90;;;;;;4955006;29;20027;-79
2021/01/25 07:06:34;;;;;;;8.77;3.15;;;-6.60;99.90;;;;;;4955542;29;20027;-82
2021/01/25 07:09:04;;;;;;;9.40;3.65;;;-4.70;99.90;;;;;;4955342;28;20065;-81
2021/01/25 07:11:31;;;;;;;7.43;3.23;;;-4.30;99.90;;;;;;4955177;29;20046;-74
2021/01/25 07:13:57;;;;;;;8.88;3.00;;;-4.90;99.90;;;;;;4955186;29;20042;-76
2021/01/25 07:16:23;;;;;;;7.65;3.25;;;-5.40;99.90;;;;;;4954817;28;20126;-75
2021/01/25 07:18:50;;;;;;;7.43;3.15;;;-5.60;99.90;;;;;;4955518;29;20435;-74
2021/01/25 07:21:18;;;;;;;8.13;2.67;;;-5.80;99.90;;;;;;4955166;29;20618;-75
2021/01/25 07:23:45;;;;;;;9.15;3.35;;;-5.90;99.90;;;;;;4955382;28;20062;-74
2021/01/25 07:26:12;;;;;;;6.40;2.92;;;-6.00;99.90;;;;;;4955006;29;20023;-77
2021/01/25 07:28:39;;;;;;;11.00;3.15;;;-6.10;99.90;;;;;;4955292;29;20035;-77
2021/01/25 07:31:05;;;;;;;8.27;3.45;;;-6.10;99.90;;;;;;4954805;28;20051;-76
2021/01/25 07:33:31;;;;;;;8.27;2.72;;;-6.20;99.90;;;;;;4954974;29;20023;-75
2021/01/25 07:36:00;;;;;;;7.38;3.55;;;-6.20;99.90;;;;;;4955080;29;20031;-75
2021/01/25 07:38:30;;;;;;;6.93;3.17;;;-6.20;99.90;;;;;;4953674;29;20020;-78
2021/01/25 07:40:58;;;;;;;6.22;3.10;;;-6.20;99.90;;;;;;4954978;29;20032;-84
2021/01/25 07:43:29;;;;;;;6.32;3.45;;;-6.20;99.90;;;;;;4954886;29;20448;-76
2021/01/25 07:46:09;;;;;;;10.40;3.75;;;-6.20;99.90;;;;;;4954571;29;20027;-85
2021/01/25 07:48:47;;;;;;;10.40;3.47;;;-6.10;99.90;;;;;;4955205;29;20480;-80
2021/01/25 07:51:19;;;;;;;8.80;2.92;;;-6.10;99.90;;;;;;4955905;29;20475;-84
2021/01/25 07:53:44;;;;;;;13.77;3.63;;;-6.10;99.90;;;;;;4954788;29;20027;-77
2021/01/25 07:56:17;;;;;;;4.68;3.03;;;-6.10;99.90;;;;;;4954414;29;20015;-76
2021/01/25 07:58:44;;;;;;;8.15;3.10;;;-6.10;99.90;;;;;;4954512;29;20033;-75
2021/01/25 08:01:54;;;;;;;9.60;3.45;;;-6.20;99.90;;;;;;4953982;29;20019;-75
2021/01/25 08:04:26;;;;;;;8.57;3.28;;;-6.20;99.90;;;;;;4953117;29;20028;-76
2021/01/25 08:06:53;;;;;;;9.32;3.85;;;-6.30;99.90;;;;;;4952880;29;20488;-73
2021/01/25 08:09:21;;;;;;;11.32;3.67;;;-6.30;99.90;;;;;;4953930;29;20070;-71
2021/01/25 08:11:48;;;;;;;10.43;3.30;;;-6.20;99.90;;;;;;4953802;29;20468;-74
2021/01/25 08:14:32;;;;;;;12.35;3.40;;;-6.30;99.90;;;;;;4954032;29;20388;-73
2021/01/25 08:17:06;;;;;;;10.45;3.83;;;-6.30;99.90;;;;;;4953454;29;20027;-74
2021/01/25 08:19:47;;;;;;;9.52;3.40;;;-6.30;99.90;;;;;;4953698;29;20498;-73
2021/01/25 08:22:23;;;;;;;5.10;2.90;;;-6.30;99.90;;;;;;4953651;28;20034;-74
2021/01/25 08:25:01;;;;;;;9.77;3.38;;;-6.30;99.90;;;;;;4953953;29;20085;-73
2021/01/25 08:27:29;;;;;;;11.93;3.80;;;-6.40;99.90;;;;;;4953991;28;20031;-73
2021/01/25 08:30:06;;;;;;;10.15;3.95;;;-6.40;99.90;;;;;;4953346;29;20400;-73
2021/01/25 08:32:40;;;;;;;7.63;3.33;;;-6.30;99.90;;;;;;4953753;29;20027;-73
2021/01/25 08:35:07;;;;;;;9.32;3.67;;;-5.20;99.90;;;;;;4953709;29;20505;-75
2021/01/25 08:37:34;;;;;;;12.93;3.00;;;-4.20;99.90;;;;;;4954096;29;20519;-73
2021/01/25 08:40:20;;;;;;;4.97;2.80;;;-3.50;99.90;;;;;;4953833;29;20042;-74
2021/01/25 08:42:47;;;;;;;7.28;3.63;;;-2.10;99.90;;;;;;4954032;29;20066;-75
2021/01/25 08:45:27;;;;;;;9.93;3.40;;;-1.80;99.90;;;;;;4953769;29;20031;-74
2021/01/25 08:48:10;;;;;;;7.07;3.30;;;-2.90;99.90;;;;;;4953940;28;20029;-75
2021/01/25 08:50:37;;;;;;;7.43;3.78;;;-4.00;99.90;;;;;;4953922;28;20039;-75
2021/01/25 08:53:05;;;;;;;8.68;3.25;;;-4.60;99.90;;;;;;4953739;29;20501;-75
2021/01/25 08:55:42;;;;;;;9.45;3.90;;;-5.00;99.90;;;;;;4953915;28;20404;-75
2021/01/25 08:58:18;;;;;;;9.45;3.65;;;-5.20;99.90;;;;;;4953786;28;20063;-75
2021/01/25 09:00:48;;;;;;;12.65;4.15;;;-5.50;99.90;;;;;;4954077;28;20024;-75
2021/01/25 09:03:15;;;;;;;9.43;4.18;;;-5.60;99.90;;;;;;4953689;28;20027;-74
2021/01/25 09:05:40;;;;;;;8.43;3.40;;;-5.70;99.90;;;;;;4952611;29;20113;-74
2021/01/25 09:08:06;;;;;;;9.27;3.75;;;-5.80;99.90;;;;;;4953555;29;20380;-74
2021/01/25 09:10:32;;;;;;;8.95;4.20;;;-5.80;99.90;;;;;;4953705;28;20040;-74
2021/01/25 09:12:58;;;;;;;11.38;3.90;;;-5.80;99.90;;;;;;4953703;28;20024;-74
2021/01/25 09:15:26;;;;;;;8.18;4.13;;;-5.80;99.90;;;;;;4953614;28;20047;-74
2021/01/25 09:17:55;;;;;;;9.82;4.35;;;-5.80;99.90;;;;;;4953460;28;20028;-74
2021/01/25 09:20:21;;;;;;;7.83;3.53;;;-5.80;99.90;;;;;;4953687;28;20036;-74
2021/01/25 09:22:47;;;;;;;11.02;4.22;;;-5.80;99.90;;;;;;4953589;28;20079;-74
2021/01/25 09:25:15;;;;;;;9.27;4.25;;;-5.80;99.90;;;;;;4953408;28;20035;-74
2021/01/25 09:27:42;;;;;;;12.90;4.38;;;-5.80;99.90;;;;;;4953831;29;20472;-74
2021/01/25 09:30:11;;;;;;;10.77;4.70;;;-5.80;99.90;;;;;;4953437;29;20039;-74
2021/01/25 09:32:38;;;;;;;8.82;4.47;;;-5.90;99.90;;;;;;4953670;28;20023;-74
2021/01/25 09:35:05;;;;;;;12.75;4.50;;;-5.90;99.90;;;;;;4953382;29;20101;-74
2021/01/25 09:37:30;;;;;;;9.73;4.10;;;-5.90;99.90;;;;;;4953394;29;20062;-74
2021/01/25 09:39:56;;;;;;;10.57;4.63;;;-5.90;99.90;;;;;;4954477;28;20102;-74
2021/01/25 09:42:22;;;;;;;4.30;2.55;;;-5.90;99.90;;;;;;4957080;29;20027;-74
2021/01/25 09:44:47;;;;;;;8.85;4.47;;;-5.30;99.90;;;;;;4956723;29;20031;-72
2021/01/25 09:47:13;;;;;;;11.77;4.25;;;-4.50;99.90;;;;;;4956865;29;20027;-72
2021/01/25 09:49:39;;;;;;;10.38;3.97;;;-4.60;99.90;;;;;;4956777;29;20118;-77
2021/01/25 09:52:04;;;;;;;10.93;4.00;;;-4.80;99.90;;;;;;4956634;29;20055;-78
2021/01/25 09:54:30;;;;;;;8.82;3.50;;;-4.90;99.90;;;;;;4955048;29;20046;-73
2021/01/25 09:56:56;;;;;;;9.13;4.47;;;-4.40;99.90;;;;;;4956725;28;20043;-75
2021/01/25 09:59:22;;;;;;;7.28;3.58;;;-3.80;99.90;;;;;;4955775;29;20035;-84
2021/01/25 10:01:48;;;;;;;8.70;3.78;;;-4.20;99.90;;;;;;4956190;29;20042;-80
2021/01/25 10:04:14;;;;;;;9.25;4.18;;;-4.60;99.90;;;;;;4957168;28;20042;-81
2021/01/25 10:06:40;;;;;;;6.15;3.65;;;-4.90;99.90;;;;;;4956795;29;20090;-80
2021/01/25 10:09:06;;;;;;;5.30;2.95;;;-5.10;99.90;;;;;;4956862;28;20031;-81
2021/01/25 10:11:32;;;;;;;8.63;3.28;;;-5.20;99.90;;;;;;4956438;28;20027;-75
2021/01/25 10:13:58;;;;;;;9.45;4.07;;;-5.30;99.90;;;;;;4956024;29;20035;-80
2021/01/25 10:16:23;;;;;;;10.55;4.55;;;-5.40;99.90;;;;;;4955646;28;20055;-73
2021/01/25 10:18:50;;;;;;;7.60;3.85;;;-5.40;99.90;;;;;;4964172;29;20033;-75
2021/01/25 10:21:17;;;;;;;8.68;4.07;;;-5.40;99.90;;;;;;4957392;29;20106;-76
2021/01/25 10:23:44;;;;;;;9.38;3.90;;;-5.40;99.90;;;;;;4956031;28;20038;-75
2021/01/25 10:26:10;;;;;;;8.55;4.07;;;-5.40;99.90;;;;;;4956131;29;20395;-74
2021/01/25 10:28:35;;;;;;;11.02;3.90;;;-5.40;99.90;;;;;;4956210;29;20118;-75
2021/01/25 10:31:01;;;;;;;7.88;4.22;;;-5.40;99.90;;;;;;4955869;28;20067;-74
2021/01/25 10:33:27;;;;;;;7.07;3.78;;;-5.40;99.90;;;;;;4956144;29;20030;-74
2021/01/25 10:35:52;;;;;;;6.03;3.53;;;-5.40;99.90;;;;;;4955772;29;20050;-74
2021/01/25 10:38:18;;;;;;;7.70;4.10;;;-5.40;99.90;;;;;;4955626;29;20087;-75
2021/01/25 10:40:45;;;;;;;7.78;3.38;;;-5.40;99.90;;;;;;4955549;29;20020;-76
2021/01/25 10:43:10;;;;;;;7.40;3.03;;;-5.30;99.90;;;;;;4955311;28;20093;-75
2021/01/25 10:45:36;;;;;;;8.95;4.15;;;-5.00;99.90;;;;;;4954988;29;20031;-76
2021/01/25 10:48:02;;;;;;;7.75;4.20;;;-4.60;99.90;;;;;;4954555;29;20031;-75
2021/01/25 10:50:28;;;;;;;6.82;3.53;;;-4.80;99.90;;;;;;4955039;28;20166;-75
2021/01/25 10:52:54;;;;;;;9.32;4.10;;;-4.90;99.90;;;;;;4954091;29;20094;-76
2021/01/25 10:55:20;;;;;;;6.75;3.55;;;-5.10;99.90;;;;;;4955302;29;20043;-75
2021/01/25 10:57:46;;;;;;;5.88;2.95;;;-5.10;99.90;;;;;;4955530;29;20027;-74
2021/01/25 11:00:18;;;;;;;5.80;3.10;;;-5.20;99.90;;;;;;4955324;29;20034;-75
2021/01/25 11:02:45;;;;;;;11.43;3.58;;;-5.20;99.90;;;;;;4955409;29;20063;-75
2021/01/25 11:05:13;;;;;;;6.28;3.00;;;-5.20;99.90;;;;;;4955422;28;20395;-78
2021/01/25 11:07:39;;;;;;;5.32;3.67;;;-5.30;99.90;;;;;;4955465;29;20041;-75
2021/01/25 11:10:11;;;;;;;6.88;3.67;;;-5.30;99.90;;;;;;4955572;29;20039;-76
2021/01/25 11:12:37;;;;;;;8.07;3.95;;;-5.30;99.90;;;;;;4955034;29;20472;-75
2021/01/25 11:15:05;;;;;;;7.47;4.55;;;-5.30;99.90;;;;;;4954632;29;20134;-76
2021/01/25 11:17:30;;;;;;;8.48;3.85;;;-5.30;99.90;;;;;;4955049;29;20027;-75
2021/01/25 11:19:56;;;;;;;7.30;3.45;;;-5.30;99.90;;;;;;4955205;29;20034;-76
2021/01/25 11:22:22;;;;;;;7.38;3.80;;;-5.30;99.90;;;;;;4955208;29;20365;-76
2021/01/25 11:24:47;;;;;;;5.22;3.15;;;-5.30;99.90;;;;;;4954998;29;20118;-75
2021/01/25 11:27:13;;;;;;;8.10;3.92;;;-5.30;99.90;;;;;;4954957;29;20495;-74
2021/01/25 11:29:39;;;;;;;9.98;4.28;;;-5.30;99.90;;;;;;4955166;29;20035;-76
2021/01/25 11:32:06;;;;;;;9.35;3.75;;;-5.30;99.90;;;;;;4954438;29;20106;-73
2021/01/25 11:34:31;;;;;;;5.88;3.58;;;-5.30;99.90;;;;;;4954989;29;20031;-74
2021/01/25 11:36:58;;;;;;;9.85;4.28;;;-4.70;99.90;;;;;;4954358;29;20034;-73
2021/01/25 11:39:25;;;;;;;10.15;3.72;;;-4.60;99.90;;;;;;4954637;28;20015;-72
2021/01/25 11:41:51;;;;;;;7.60;3.78;;;-4.80;99.90;;;;;;4954891;28;20112;-72
2021/01/25 11:44:18;;;;;;;9.10;4.05;;;-5.00;99.90;;;;;;4954677;29;20020;-75
2021/01/25 11:46:44;;;;;;;8.77;4.20;;;-5.00;99.90;;;;;;4954765;28;20035;-75
2021/01/25 11:49:09;;;;;;;8.45;3.90;;;-5.10;99.90;;;;;;4953394;29;20506;-74
2021/01/25 11:51:35;;;;;;;9.25;3.60;;;-5.10;99.90;;;;;;4954611;29;20040;-73
2021/01/25 11:54:01;;;;;;;6.07;3.47;;;-5.20;99.90;;;;;;4954684;29;20019;-74
2021/01/25 11:56:27;;;;;;;8.75;3.97;;;-5.20;99.90;;;;;;4954852;29;20031;-73
2021/01/25 11:58:52;;;;;;;7.55;3.72;;;-5.20;99.90;;;;;;4955195;29;20043;-72
2021/01/25 12:01:18;;;;;;;8.68;4.10;;;-4.10;99.90;;;;;;4954255;29;20053;-74
2021/01/25 12:03:44;;;;;;;6.50;3.65;;;-4.20;99.90;;;;;;4954498;28;20030;-73
2021/01/25 12:06:12;;;;;;;6.65;3.85;;;-4.50;99.90;;;;;;4954361;29;20024;-73
2021/01/25 12:08:37;;;;;;;8.30;3.78;;;-4.70;99.90;;;;;;4952793;29;20024;-74
2021/01/25 12:11:04;;;;;;;9.77;4.22;;;-4.90;99.90;;;;;;4951932;29;20039;-78
2021/01/25 12:13:30;;;;;;;9.57;4.30;;;-5.10;99.90;;;;;;4953720;29;20122;-79
2021/01/25 12:15:56;;;;;;;8.00;4.20;;;-5.20;99.90;;;;;;4954131;29;20126;-78
2021/01/25 12:18:22;;;;;;;10.90;4.75;;;-5.10;99.90;;;;;;4953477;29;20031;-80
2021/01/25 12:20:47;;;;;;;8.07;4.28;;;-5.20;99.90;;;;;;4953074;29;20069;-78
2021/01/25 12:23:13;;;;;;;8.50;4.00;;;-5.20;99.90;;;;;;4954510;29;20532;-79
2021/01/25 12:25:39;;;;;;;7.35;3.45;;;-5.30;99.90;;;;;;4953607;28;20440;-80
2021/01/25 12:28:07;;;;;;;6.28;3.47;;;-5.40;99.90;;;;;;4954054;29;20027;-79
2021/01/25 12:30:33;;;;;;;9.68;4.25;;;-5.40;99.90;;;;;;4953763;29;20070;-79
2021/01/25 12:32:59;;;;;;;7.25;4.05;;;-5.40;99.90;;;;;;4952563;29;20454;-79
2021/01/25 12:35:25;;;;;;;8.52;4.00;;;-5.40;99.90;;;;;;4953844;29;20038;-80
2021/01/25 12:37:53;;;;;;;6.93;3.80;;;-5.30;99.90;;;;;;4954146;29;20023;-80
2021/01/25 12:40:20;;;;;;;9.27;4.70;;;-5.30;99.90;;;;;;4953465;29;20023;-78
2021/01/25 12:42:46;;;;;;;3.85;2.78;;;-5.30;99.90;;;;;;4953669;28;20035;-79
2021/01/25 12:45:13;;;;;;;9.82;3.92;;;-5.30;99.90;;;;;;4953452;29;20399;-79
2021/01/25 12:47:39;;;;;;;16.02;5.22;;;-5.40;99.90;;;;;;4956917;29;20020;-78
2021/01/25 12:50:06;;;;;;;8.45;3.88;;;-5.40;99.90;;;;;;4956305;28;20409;-79
2021/01/25 12:52:33;;;;;;;5.80;3.38;;;-5.50;99.90;;;;;;4954256;29;20044;-78
2021/01/25 12:55:00;;;;;;;5.22;2.65;;;-5.50;99.90;;;;;;4953581;29;20037;-79
2021/01/25 12:57:26;;;;;;;3.40;2.63;;;-5.60;99.90;;;;;;4953611;29;20029;-79
2021/01/25 12:59:51;;;;;;;3.78;2.75;;;-5.70;99.90;;;;;;4951083;29;20027;-79
2021/01/25 13:02:17;;;;;;;3.45;2.65;;;-5.70;99.90;;;;;;4953756;29;20027;-79
2021/01/25 13:04:43;;;;;;;5.45;2.78;;;-5.70;99.90;;;;;;4953257;28;20420;-75
2021/01/25 13:07:09;;;;;;;4.53;2.92;;;-5.50;99.90;;;;;;4952769;29;20023;-75
2021/01/25 13:09:35;;;;;;;4.90;2.75;;;-5.40;99.90;;;;;;4952851;29;20086;-74
2021/01/25 13:12:01;;;;;;;3.92;2.85;;;-5.50;99.90;;;;;;4952378;29;20027;-75
2021/01/25 13:14:26;;;;;;;5.05;3.20;;;-5.60;99.90;;;;;;4953409;28;20131;-75
2021/01/25 13:16:52;;;;;;;4.68;3.03;;;-5.60;99.90;;;;;;4955976;29;20035;-75
2021/01/25 13:19:18;;;;;;;5.88;3.22;;;-5.70;99.90;;;;;;4956040;29;20034;-75
2021/01/25 13:21:43;;;;;;;4.90;3.10;;;-5.70;99.90;;;;;;4957497;29;20483;-79
2021/01/25 13:24:10;;;;;;;5.43;3.05;;;-5.60;99.90;;;;;;4957226;28;20496;-76
2021/01/25 13:26:36;;;;;;;4.70;3.35;;;-5.20;99.90;;;;;;4957713;28;20038;-77
2021/01/25 13:29:02;;;;;;;5.50;2.67;;;-5.40;99.90;;;;;;4957099;28;20035;-76
2021/01/25 13:31:27;;;;;;;5.15;3.15;;;-5.60;99.90;;;;;;4957259;28;20083;-76
2021/01/25 13:33:53;;;;;;;5.55;3.10;;;-5.70;99.90;;;;;;4957147;29;20034;-76
2021/01/25 13:36:19;;;;;;;6.65;3.28;;;-5.90;99.90;;;;;;4956990;28;20476;-76
2021/01/25 13:38:45;;;;;;;8.30;3.53;;;-6.00;99.90;;;;;;4957348;28;20027;-76
2021/01/25 13:41:12;;;;;;;6.25;2.88;;;-6.10;99.90;;;;;;4957158;28;20023;-76
2021/01/25 13:43:38;;;;;;;7.47;3.45;;;-6.10;99.90;;;;;;4956937;28;20034;-76
2021/01/25 13:46:05;;;;;;;8.70;3.58;;;-6.20;99.90;;;;;;4956906;28;20609;-76
2021/01/25 13:48:31;;;;;;;6.60;2.88;;;-6.20;99.90;;;;;;4971714;28;20078;-76
2021/01/25 13:50:58;;;;;;;5.55;3.22;;;-6.30;99.90;;;;;;4955546;29;20035;-75
2021/01/25 13:53:24;;;;;;;7.22;3.58;;;-6.40;99.90;;;;;;4957067;28;20024;-76
2021/01/25 13:55:50;;;;;;;5.75;3.40;;;-6.40;99.90;;;;;;4956863;28;20527;-75
2021/01/25 13:58:17;;;;;;;6.38;3.53;;;-6.40;99.90;;;;;;4956767;28;20027;-76
2021/01/25 14:00:43;;;;;;;7.07;3.60;;;-6.40;99.90;;;;;;4955416;29;20023;-75
2021/01/25 14:03:09;;;;;;;4.32;2.80;;;-6.40;99.90;;;;;;4956768;28;20531;-75
2021/01/25 14:05:35;;;;;;;4.38;2.97;;;-6.50;99.90;;;;;;4956969;28;20118;-75
2021/01/25 14:08:01;;;;;;;5.53;3.00;;;-6.60;99.30;;;;;;4956710;28;20519;-76
2021/01/25 14:10:28;;;;;;;7.35;3.35;;;-6.70;99.90;;;;;;4956707;29;20130;-76
2021/01/25 14:12:54;;;;;;;4.78;3.03;;;-6.70;99.80;;;;;;4956803;28;20114;-75
2021/01/25 14:15:21;;;;;;;4.72;2.92;;;-6.80;99.90;;;;;;4956439;28;20058;-75
2021/01/25 14:17:47;;;;;;;8.65;3.75;;;-6.80;99.90;;;;;;4956519;28;20110;-76
2021/01/25 14:20:16;;;;;;;8.75;3.85;;;-6.90;99.90;;;;;;4956459;28;20113;-75
2021/01/25 14:22:42;;;;;;;5.18;3.22;;;-6.90;99.90;;;;;;4956285;29;20035;-75
2021/01/25 14:25:09;;;;;;;7.97;3.78;;;-6.90;99.70;;;;;;4956221;28;20028;-75
2021/01/25 14:27:37;;;;;;;5.85;3.25;;;-7.00;99.90;;;;;;4956503;29;20031;-75
2021/01/25 14:30:06;;;;;;;8.90;3.40;;;-7.00;99.40;;;;;;4956508;28;20452;-76
2021/01/25 14:32:31;;;;;;;4.75;2.72;;;-7.00;99.90;;;;;;4956103;28;20019;-76
2021/01/25 14:34:57;;;;;;;5.53;3.10;;;-7.00;99.90;;;;;;4955048;28;20046;-76
2021/01/25 14:37:23;;;;;;;7.25;3.63;;;-7.10;98.20;;;;;;4955914;29;20171;-76
2021/01/25 14:39:48;;;;;;;8.55;3.30;;;-7.10;98.90;;;;;;4955791;29;20027;-74
2021/01/25 14:42:14;;;;;;;8.68;3.63;;;-7.00;99.20;;;;;;4955964;29;20025;-73
2021/01/25 14:44:40;;;;;;;5.78;3.60;;;-6.50;99.90;;;;;;4955351;29;20055;-72
2021/01/25 14:47:06;;;;;;;13.65;6.57;;;-6.50;99.90;;;;;;4953364;29;20030;-74
2021/01/25 14:49:32;;;;;;;11.40;4.72;;;-6.60;99.90;;;;;;4954917;28;20384;-74
2021/01/25 14:51:57;;;;;;;7.20;3.42;;;-6.70;99.90;;;;;;4955812;28;20384;-74
2021/01/25 14:54:23;;;;;;;8.27;3.95;;;-6.50;99.90;;;;;;4955617;28;20365;-75
2021/01/25 14:56:50;;;;;;;9.65;3.58;;;-6.60;99.90;;;;;;4955095;28;20028;-74
2021/01/25 14:59:16;;;;;;;12.57;6.72;;;-6.70;99.80;;;;;;4955224;29;20110;-75
2021/01/25 15:01:42;;;;;;;9.77;4.22;;;-6.90;99.40;;;;;;4951908;29;20510;-74
2021/01/25 15:04:08;;;;;;;6.30;3.35;;;-6.90;99.90;;;;;;4954616;28;20035;-73
2021/01/25 15:06:34;;;;;;;7.38;3.60;;;-7.00;97.70;;;;;;4955117;29;20030;-73
2021/01/25 15:08:59;;;;;;;6.30;3.75;;;-7.10;97.60;;;;;;4955622;28;20042;-73
2021/01/25 15:11:26;;;;;;;8.75;3.88;;;-7.10;99.00;;;;;;4954901;28;20872;-74
2021/01/25 15:13:51;;;;;;;6.95;3.53;;;-7.10;99.00;;;;;;4955273;29;20035;-73
2021/01/25 15:16:17;;;;;;;8.95;4.10;;;-7.20;97.00;;;;;;4952796;28;20078;-74
2021/01/25 15:18:43;;;;;;;8.27;4.60;;;-7.30;97.80;;;;;;4953991;29;20510;-73
2021/01/25 15:21:09;;;;;;;6.70;3.58;;;-7.30;98.80;;;;;;4953264;29;20031;-73
2021/01/25 15:23:36;;;;;;;10.10;3.92;;;-7.30;98.50;;;;;;4949372;29;20103;-73
2021/01/25 15:26:02;;;;;;;9.48;4.30;;;-7.40;97.30;;;;;;4955033;29;20031;-74
2021/01/25 15:28:28;;;;;;;5.78;3.10;;;-7.50;97.30;;;;;;4953314;28;20030;-73
2021/01/25 15:30:54;;;;;;;7.60;3.80;;;-7.40;98.20;;;;;;4956223;28;20043;-73
2021/01/25 15:33:19;;;;;;;9.18;3.92;;;-7.60;95.30;;;;;;4954543;28;20028;-73
2021/01/25 15:35:45;;;;;;;9.65;3.88;;;-7.60;96.90;;;;;;4954148;28;20054;-73
2021/01/25 15:38:12;;;;;;;17.05;7.07;;;-7.50;98.50;;;;;;4953554;28;20102;-73
2021/01/25 15:40:38;;;;;;;12.13;5.38;;;-7.50;97.80;;;;;;4955001;29;20061;-73
2021/01/25 15:43:04;;;;;;;8.00;3.53;;;-7.50;97.00;;;;;;4954440;29;20027;-73
2021/01/25 15:45:30;;;;;;;9.65;4.03;;;-7.60;95.00;;;;;;4954639;29;20384;-76
2021/01/25 15:47:56;;;;;;;101.68;39.65;;;-7.70;96.40;;;;;;4954592;29;20027;-76
2021/01/25 15:50:22;;;;;;;18.67;8.90;;;-7.70;97.50;;;;;;4954023;28;20035;-75
2021/01/25 15:52:48;;;;;;;10.25;4.38;;;-7.70;97.10;;;;;;4953959;29;20159;-75
2021/01/25 15:55:20;;;;;;;8.00;3.78;;;-7.80;97.80;;;;;;4954175;29;20031;-75
2021/01/25 15:57:46;;;;;;;6.13;3.10;;;-7.70;97.80;;;;;;4954266;28;20535;-74
2021/01/25 16:00:14;;;;;;;7.55;3.78;;;-7.70;95.80;;;;;;4951519;29;20139;-81
2021/01/25 16:02:40;;;;;;;7.60;3.72;;;-7.70;97.00;;;;;;4951843;28;20450;-72
2021/01/25 16:05:07;;;;;;;10.63;3.67;;;-7.70;96.50;;;;;;4948845;28;20090;-77
2021/01/25 16:07:35;;;;;;;9.73;3.90;;;-7.80;96.80;;;;;;4954145;28;20047;-78
2021/01/25 16:10:02;;;;;;;5.72;3.03;;;-7.70;96.50;;;;;;4954425;28;20042;-76
2021/01/25 16:12:28;;;;;;;8.40;3.38;;;-7.80;94.00;;;;;;4953868;28;20035;-77
2021/01/25 16:14:54;;;;;;;4.88;2.95;;;-8.00;94.30;;;;;;4953351;29;20039;-76
2021/01/25 16:17:28;;;;;;;9.05;3.85;;;-7.90;95.50;;;;;;4953547;29;20471;-77
2021/01/25 16:19:54;;;;;;;5.07;3.08;;;-7.90;95.10;;;;;;4952829;29;20069;-80
2021/01/25 16:22:19;;;;;;;7.80;3.05;;;-8.10;93.80;;;;;;4954009;29;20051;-80
2021/01/25 16:24:45;;;;;;;6.10;3.00;;;-6.90;99.90;;;;;;4953834;29;20034;-81
2021/01/25 16:27:11;;;;;;;7.18;3.47;;;-7.10;99.90;;;;;;4953827;29;20035;-80
2021/01/25 16:29:37;;;;;;;6.68;3.50;;;-7.40;97.00;;;;;;4954348;29;20047;-80
2021/01/25 16:32:03;;;;;;;6.97;3.00;;;-7.70;96.10;;;;;;4954174;29;20034;-79
2021/01/25 16:34:29;;;;;;;6.32;3.13;;;-7.90;96.80;;;;;;4953689;29;20031;-80
2021/01/25 16:36:55;;;;;;;5.30;3.30;;;-7.80;97.30;;;;;;4954392;29;20026;-80
2021/01/25 16:39:21;;;;;;;12.05;4.07;;;-8.00;96.50;;;;;;4954169;29;20050;-80
2021/01/25 16:41:55;;;;;;;8.32;3.80;;;-8.10;94.50;;;;;;4954016;29;20472;-82
2021/01/25 16:44:22;;;;;;;11.52;3.10;;;-8.20;95.60;;;;;;4953665;29;20062;-80
2021/01/25 16:46:47;;;;;;;7.13;3.20;;;-8.20;99.90;;;;;;4952817;28;20401;-74
2021/01/25 16:49:13;;;;;;;6.38;3.58;;;-8.00;99.90;;;;;;4951655;29;20118;-74
2021/01/25 16:51:39;;;;;;;7.60;3.80;;;-8.10;96.60;;;;;;4952798;29;20035;-76
2021/01/25 16:54:05;;;;;;;6.32;2.80;;;-8.20;95.80;;;;;;4953226;29;20031;-76
2021/01/25 16:56:31;;;;;;;9.73;3.88;;;-8.20;94.90;;;;;;4953227;29;20042;-78
2021/01/25 16:58:57;;;;;;;9.55;3.17;;;-8.50;93.60;;;;;;4953461;29;20027;-78
2021/01/25 17:01:23;;;;;;;5.90;3.45;;;-8.50;96.10;;;;;;4953626;29;20071;-78